Cul'Man, Russia
Current Conditions -  °F | °C
As of 8:00 PM on Wednesday 26 Nov 2014 (Local Time) from UEEE Reporting Station
Light Snow Light Snow  
Wind Chill: -22°   Ceiling: 10000
Heat Index: -6°   Visibility: 6mi
Dew Point: -9°   Wind: 9mph
Humidity: 84%   Direction: 320°NW
Pressure: 29.88"   Gusts: NA
Location:  56.83°N, 124.87°E
Report Text: UEEE 261100Z 32004MPS 9999 -SN OVC100 M21/M23 Q1012 NOSIG RMKQFE750 23490150
Loading
Personal Weather Stations






























Interactive Weather Map New forecast layout! Learn more

10-Day Weather Forecast

Advertisements
Track Severe Weather on mobile